METAR Data
IDs: Format: Raw Decoded Include TAF

Data at: 0425 UTC 26 Sep 2018

KSPW 260353Z AUTO 24006KT 10SM CLR 08/07 A3009 RMK AO2 SLP194 T00780067 $
KSPW 260253Z AUTO 25007KT 10SM SCT090 09/07 A3009 RMK AO2 SLP193 T00890072 51016 $
KSPW 260153Z AUTO 27006KT 10SM CLR 10/07 A3008 RMK AO2 SLP190 T01000072 $
KSPW 260053Z AUTO 28005KT 10SM CLR 10/07 A3007 RMK AO2 SLP185 T01000072 $
KSPW 252353Z AUTO 30007KT 10SM FEW065 13/07 A3004 RMK AO2 SLP174 T01280072 10156 20117 53008 $
KSPW 252253Z AUTO 30011G21KT 10SM FEW037 BKN055 14/08 A3002 RMK AO2 SLP167 T01440078 $
KSPW 252153Z AUTO 32012KT 10SM FEW040 OVC050 16/08 A3001 RMK AO2 SLP165 T01560078 $
KSPW 252053Z AUTO 32010G17KT 10SM OVC035 14/08 A3002 RMK AO2 SLP165 T01390078 51005 $
KSPW 252043Z AUTO 32010KT 10SM SCT024 OVC031 13/08 A3002 RMK AO2 T01330078 $
KSPW 251953Z AUTO 33014KT 10SM BKN019 OVC027 13/08 A3001 RMK AO2 SLP166 T01280078 $
KSPW 251902Z AUTO 33011KT 10SM OVC017 12/09 A3002 RMK AO2 T01220089 $
KSPW 251853Z AUTO 31012KT 10SM BKN014 OVC021 13/09 A3002 RMK AO2 SLP167 T01280089 $
KSPW 251753Z AUTO 33014KT 10SM OVC011 12/09 A3000 RMK AO2 SLP160 60006 T01220094 10128 20100 53007 $
KSPW 251653Z AUTO 34011KT 10SM OVC013 11/09 A2998 RMK AO2 RAB17E33 SLP152 P0000 T01110089 $
KSPW 251553Z AUTO 01012KT 10SM OVC011 12/09 A2995 RMK AO2 RAE32 SLP141 P0003 T01220094 $
KSPW 251524Z AUTO 34012KT 10SM -RA BKN011 OVC046 11/09 A2997 RMK AO2 P0003 T01060089 $
KSPW 251502Z AUTO 34005KT 3SM RA BR FEW010 SCT021 OVC044 10/09 A2999 RMK AO2 P0002 T01000089 $
KSPW 251453Z AUTO 01006KT 4SM RA BR SCT010 BKN021 OVC055 10/09 A2998 RMK AO2 RAB04B11 SLP152 P0003 60003 T01000089 $
KSPW 251446Z AUTO 02007KT 6SM RA BR BKN010 BKN021 OVC044 10/08 A2998 RMK AO2 RAB04B11 CIG 006V012 P0001 T01000083 $
KSPW 251353Z AUTO 35009KT 10SM OVC006 11/09 A2994 RMK AO2 SLP138 T01110094
KSPW 251253Z AUTO 35008KT 10SM OVC007 11/10 A2995 RMK AO2 PRESRR SLP143 T01110100 $
KSPW 251153Z AUTO 36009KT 10SM OVC007 12/10 A2994 RMK AO2 SLP139 60000 T01170100 10144 20117 53004 $
KSPW 251053Z AUTO 03010KT 10SM OVC007 12/10 A2991 RMK AO2 CIG 006V013 SLP127 T01170100 $
KSPW 250953Z AUTO 02008KT 10SM OVC005 12/11 A2992 RMK AO2 CIG 004V011 SLP129 T01170106 $
KSPW 250853Z AUTO 35009KT 5SM BR BKN006 OVC010 12/11 A2993 RMK AO2 RAE0754 SLP131 P0000 60000 T01220111 50005 $
KSPW 250753Z AUTO 36007KT 5SM -RA BR OVC005 13/12 A2993 RMK AO2 RAB02 SLP131 P0000 T01280117 $
KSPW 250653Z AUTO 01007KT 4SM BR OVC005 13/12 A2992 RMK AO2 CIG 004V009 SLP128 T01280117 $
KSPW 250553Z AUTO 35008KT 10SM OVC008 14/12 A2991 RMK AO2 SLP124 60000 T01440122 10183 20144 402670133 $
KSPW 250453Z AUTO 02008KT 10SM OVC009 15/13 A2990 RMK AO2 SLP120 T01500128 $
KSPW 250450Z AUTO 01009KT 10SM OVC009 15/13 A2989 RMK AO2 $
KSPW 250438Z AUTO 36010KT 10SM BKN010 OVC015 16/13 A2990 RMK AO2 T01560133 $
KSPW 250353Z AUTO 33007KT 10SM BKN016 BKN045 OVC055 16/13 A2990 RMK AO2 SLP119 T01610133 $
KSPW 250351Z AUTO 34007KT 10SM BKN016 BKN045 OVC055 16/14 A2989 RMK AO2 $
KSPW 250253Z AUTO 34005KT 10SM FEW049 OVC065 17/15 A2988 RMK AO2 RAE0155B26E37 SLP114 P0000 60000 T01670150 51017 $
KSPW 250153Z AUTO 33004KT 10SM -RA BKN060 BKN110 17/15 A2986 RMK AO2 RAB03E17B40 SLP109 P0000 T01670150 $
KSPW 250053Z AUTO 31005KT 10SM FEW042 OVC060 17/15 A2984 RMK AO2 SLP105 T01720150 $
KSPW 242353Z AUTO 30005KT 10SM SCT042 OVC055 18/15 A2983 RMK AO2 SLP098 T01830150 10267 20183 51006 $
KSPW 242253Z AUTO 30010KT 10SM BKN045 19/16 A2982 RMK AO2 SLP096 T01940156 $
KSPW 242153Z AUTO 29014KT 10SM SCT040 BKN048 20/16 A2982 RMK AO2 SLP096 T02000156 $
KSPW 242053Z AUTO 26012KT 10SM BKN048 24/16 A2981 RMK AO2 SLP089 T02440161 55014 $
KSPW 241953Z AUTO 19010G20KT 10SM BKN048 BKN055 26/15 A2981 RMK AO2 SLP087 T02560150 $
KSPW 241853Z AUTO 19013G22KT 10SM SCT042 25/14 A2983 RMK AO2 SLP095 T02500144 $
KSPW 241753Z AUTO 20017G25KT 10SM FEW035 25/15 A2985 RMK AO2 PK WND 18029/1713 SLP102 T02500150 10250 20133 56011 $
KSPW 241653Z AUTO 19014G26KT 10SM FEW029 23/15 A2986 RMK AO2 PK WND 17029/1622 SLP105 T02280150 $